Aeroporto :
LOGIN :

Iscrizione | Disclaimer

   EN    FR    IT 

 










Sommario :    VFR   VFR Marginale   IFR   IFR Intensivo   IFR Molto Intensivo
Visibilità : 
Base nubi : 
>= 8 km
>= 3000ft
5 / 8 km
1000 / 3000 ft
1500m / 5 km
500 / 1000 ft
800 / 1500m
200 / 500 ft
< 800m
< 200 ft
Simboli :   Temporali  Nebbia  Neve Forte  Precipitazioni Forti  Vento > 20 kt
SIGMETs :   Varie  Temporali  Ghiacco  Turbolenza  Onda orograficha  Ceneri Vulcaniche






- Altitudine del aeroporto : 215 ft
- Codice IATA : ABZ


EGPD - Aberdeen / Dyce

ULTIMO METAR :
  • 251820Z AUTO VRB01KT 9999 NCD 02/01 Q1011 NOSIG

METARs OBSOLETI :
  • 251750Z AUTO 05003KT 9999 NCD 04/02 Q1011 NOSIG
  • 251720Z AUTO VRB03KT 9999 FEW037 04/02 Q1011 NOSIG
  • 251650Z AUTO VRB03KT 9999 FEW038 SCT049 03/02 Q1010 NOSIG
  • 251620Z AUTO 17003KT 9999 FEW049 04/02 Q1010 NOSIG
  • 251550Z 23004KT CAVOK 04/02 Q1009 NOSIG

TAF TAF EGPD
Valido dal 25 a 18 ore il 26 a 18 ore UTC


251700Z 2518/2618 23005KT 9999 FEW020
PROB30
TEMPO 2518/2523 6000
PROB30
TEMPO 2523/2603 7000 SHRA



MetMap, La meteo Aeronautica in un colpo d'occhio ! - Copyright ORBIFLY Dicembre 2007 - Disclaimer

ORBIFLY MET'MAP TEAM :

Programmazione e sviluppo : Alexandra Zaïnal
Concezione : Baudouin d'Aumeries
Aiuto per la programmazione : Marc-Olivier Méhu
Supporto tecnico e logistico : Manuel Goepfert
Aiuto per la traduzione : Arnaldo La Scala

Contatto : metmap@orbifly.com




FONTI E CREDITI :

   NOAA